Time;durP1;ratioP1;P1;durP2;ratioP2;P2;SDS_P1;SDS_P2;PMS_P1;PMS_P2;Temp;Humidity;BMP_temperature;BMP_pressure;BME280_temperature;BME280_humidity;BME280_pressure;Samples;Min_cycle;Max_cycle;Signal;HPM_P1;HPM_P2
2021/05/28 00:01:44;;;;;;;4.25;2.65;;;;;;;;;;5103702;28;20468;-64
2021/05/28 00:04:10;;;;;;;5.72;2.90;;;;;;;;;;5116879;28;20019;-64
2021/05/28 00:06:35;;;;;;;4.70;3.08;;;;;;;;;;5117264;28;20027;-64
2021/05/28 00:09:00;;;;;;;6.38;3.00;;;;;;;;;;5116550;28;20096;-64
2021/05/28 00:11:26;;;;;;;5.43;3.10;;;;;;;;;;5116891;28;20023;-64
2021/05/28 00:13:51;;;;;;;10.68;3.22;;;;;;;;;;5116405;28;20365;-64
2021/05/28 00:16:16;;;;;;;6.75;2.67;;;;;;;;;;5116736;28;20444;-64
2021/05/28 00:18:41;;;;;;;6.30;2.83;;;;;;;;;;5116511;28;20089;-64
2021/05/28 00:21:07;;;;;;;7.97;3.50;;;;;;;;;;5116637;28;20097;-64
2021/05/28 00:23:32;;;;;;;4.68;2.67;;;;;;;;;;5116527;28;20061;-63
2021/05/28 00:25:58;;;;;;;4.28;2.47;;;;;;;;;;5116502;28;20021;-64
2021/05/28 00:28:23;;;;;;;5.15;2.70;;;;;;;;;;5116340;28;20027;-64
2021/05/28 00:30:48;;;;;;;8.82;2.50;;;;;;;;;;5116374;28;20031;-64
2021/05/28 00:33:14;;;;;;;5.00;2.20;;;;;;;;;;5116394;28;20027;-64
2021/05/28 00:35:39;;;;;;;4.95;2.90;;;;;;;;;;5116457;28;20586;-64
2021/05/28 00:38:04;;;;;;;4.28;2.30;;;;;;;;;;5115353;28;20035;-64
2021/05/28 00:40:30;;;;;;;7.45;2.45;;;;;;;;;;5096035;28;20027;-64
2021/05/28 00:42:55;;;;;;;5.40;2.67;;;;;;;;;;5095559;28;20040;-64
2021/05/28 00:45:20;;;;;;;6.40;2.80;;;;;;;;;;5095830;28;20077;-64
2021/05/28 00:47:45;;;;;;;5.50;2.50;;;;;;;;;;5095899;28;20028;-64
2021/05/28 00:50:11;;;;;;;7.13;2.35;;;;;;;;;;5095355;28;20058;-64
2021/05/28 00:52:36;;;;;;;3.20;2.35;;;;;;;;;;5095509;28;20024;-64
2021/05/28 00:55:02;;;;;;;4.28;2.35;;;;;;;;;;5095583;28;20020;-64
2021/05/28 00:57:29;;;;;;;6.20;2.30;;;;;;;;;;5095263;28;20028;-64
2021/05/28 00:59:57;;;;;;;4.05;2.17;;;;;;;;;;5095562;28;20036;-64
2021/05/28 01:02:26;;;;;;;6.45;2.25;;;;;;;;;;5095449;28;20031;-64
2021/05/28 01:04:52;;;;;;;4.50;2.15;;;;;;;;;;5095403;28;20036;-64
2021/05/28 01:07:17;;;;;;;4.90;2.35;;;;;;;;;;5094940;28;20480;-64
2021/05/28 01:09:42;;;;;;;4.57;2.35;;;;;;;;;;5094897;28;20102;-64
2021/05/28 01:12:08;;;;;;;7.85;2.33;;;;;;;;;;5095255;28;20540;-64
2021/05/28 01:14:33;;;;;;;4.47;2.38;;;;;;;;;;5095293;28;20052;-64
2021/05/28 01:16:59;;;;;;;6.20;2.55;;;;;;;;;;5094718;28;20028;-64
2021/05/28 01:19:25;;;;;;;4.68;2.58;;;;;;;;;;5094928;28;20028;-64
2021/05/28 01:21:51;;;;;;;6.90;2.45;;;;;;;;;;5094728;28;20031;-64
2021/05/28 01:24:16;;;;;;;9.00;2.72;;;;;;;;;;5095307;28;20031;-64
2021/05/28 01:26:42;;;;;;;4.57;2.45;;;;;;;;;;5094687;28;20427;-64
2021/05/28 01:29:07;;;;;;;3.72;2.50;;;;;;;;;;5099458;28;20035;-64
2021/05/28 01:31:33;;;;;;;5.25;2.70;;;;;;;;;;5115381;28;20020;-64
2021/05/28 01:33:58;;;;;;;3.45;2.45;;;;;;;;;;5115144;28;20429;-64
2021/05/28 01:36:23;;;;;;;6.07;2.17;;;;;;;;;;5115255;28;20032;-64
2021/05/28 01:38:49;;;;;;;6.85;2.60;;;;;;;;;;5115090;28;20559;-64
2021/05/28 01:41:14;;;;;;;5.63;2.50;;;;;;;;;;5115106;28;20102;-64
2021/05/28 01:43:40;;;;;;;8.02;2.38;;;;;;;;;;5114694;28;20503;-64
2021/05/28 01:46:05;;;;;;;4.63;2.38;;;;;;;;;;5115047;28;20024;-64
2021/05/28 01:48:31;;;;;;;8.30;2.55;;;;;;;;;;5114470;28;20395;-64
2021/05/28 01:50:56;;;;;;;5.28;2.38;;;;;;;;;;5114923;28;20030;-64
2021/05/28 01:53:25;;;;;;;5.60;2.67;;;;;;;;;;5114751;28;20076;-64
2021/05/28 01:55:51;;;;;;;4.47;2.20;;;;;;;;;;5114781;28;20077;-64
2021/05/28 01:58:18;;;;;;;5.57;2.22;;;;;;;;;;5114534;28;20039;-64
2021/05/28 02:00:46;;;;;;;4.80;2.58;;;;;;;;;;5114034;28;20084;-64
2021/05/28 02:03:12;;;;;;;6.78;2.90;;;;;;;;;;5114515;28;20345;-64
2021/05/28 02:05:37;;;;;;;5.32;2.28;;;;;;;;;;5114635;28;20099;-64
2021/05/28 02:08:03;;;;;;;5.22;2.50;;;;;;;;;;5114361;28;20039;-64
2021/05/28 02:10:30;;;;;;;5.07;2.88;;;;;;;;;;5114252;28;20130;-64
2021/05/28 02:12:56;;;;;;;5.78;2.30;;;;;;;;;;5114316;28;20028;-64
2021/05/28 02:15:22;;;;;;;7.57;2.65;;;;;;;;;;5114498;28;20051;-64
2021/05/28 02:17:48;;;;;;;6.28;2.38;;;;;;;;;;5114187;28;20036;-64
2021/05/28 02:20:14;;;;;;;5.45;2.13;;;;;;;;;;5113671;28;20032;-64
2021/05/28 02:22:39;;;;;;;5.25;2.20;;;;;;;;;;5113921;28;20098;-64
2021/05/28 02:25:05;;;;;;;6.57;2.35;;;;;;;;;;5114310;28;20038;-64
2021/05/28 02:27:31;;;;;;;3.35;2.25;;;;;;;;;;5114026;28;20051;-64
2021/05/28 02:29:57;;;;;;;7.70;2.58;;;;;;;;;;5102403;28;20036;-64
2021/05/28 02:32:22;;;;;;;5.35;2.42;;;;;;;;;;5093588;28;20059;-64
2021/05/28 02:34:47;;;;;;;5.00;2.60;;;;;;;;;;5093690;28;20024;-64
2021/05/28 02:37:13;;;;;;;7.82;2.40;;;;;;;;;;5093599;28;20027;-64
2021/05/28 02:39:38;;;;;;;5.80;2.60;;;;;;;;;;5093643;28;20043;-64
2021/05/28 02:42:03;;;;;;;6.10;2.42;;;;;;;;;;5093544;28;20047;-64
2021/05/28 02:44:29;;;;;;;4.63;2.70;;;;;;;;;;5093584;28;20383;-64
2021/05/28 02:46:54;;;;;;;7.20;2.40;;;;;;;;;;5093575;28;20031;-64
2021/05/28 02:49:19;;;;;;;6.13;2.30;;;;;;;;;;5093355;28;20040;-64
2021/05/28 02:51:45;;;;;;;4.15;2.38;;;;;;;;;;5093231;28;20023;-64
2021/05/28 02:54:10;;;;;;;8.00;2.70;;;;;;;;;;5093392;28;20460;-64
2021/05/28 02:56:35;;;;;;;9.02;2.70;;;;;;;;;;5093710;28;20107;-64
2021/05/28 02:59:01;;;;;;;5.35;2.60;;;;;;;;;;5093279;28;20024;-64
2021/05/28 03:01:26;;;;;;;5.72;2.50;;;;;;;;;;5093416;28;20120;-64
2021/05/28 03:03:51;;;;;;;3.58;2.38;;;;;;;;;;5093214;28;20465;-64
2021/05/28 03:06:16;;;;;;;9.75;2.55;;;;;;;;;;5093437;28;20024;-64
2021/05/28 03:08:42;;;;;;;8.10;2.47;;;;;;;;;;5093031;28;20035;-64
2021/05/28 03:11:07;;;;;;;6.88;2.35;;;;;;;;;;5092921;28;20040;-64
2021/05/28 03:13:32;;;;;;;4.28;2.53;;;;;;;;;;5093084;28;20039;-64
2021/05/28 03:15:58;;;;;;;8.65;2.42;;;;;;;;;;5093041;28;20115;-64
2021/05/28 03:18:25;;;;;;;5.97;2.17;;;;;;;;;;5093068;28;20032;-64
2021/05/28 03:20:56;;;;;;;3.88;2.33;;;;;;;;;;5093096;28;20470;-64
2021/05/28 03:23:22;;;;;;;7.43;2.30;;;;;;;;;;5092931;28;20089;-64
2021/05/28 03:25:47;;;;;;;6.20;2.67;;;;;;;;;;5093214;28;20040;-64
2021/05/28 03:28:12;;;;;;;5.35;2.47;;;;;;;;;;5092924;28;20032;-64
2021/05/28 03:30:38;;;;;;;3.20;2.22;;;;;;;;;;5110414;28;20031;-64
2021/05/28 03:33:04;;;;;;;3.78;2.38;;;;;;;;;;5117598;28;20028;-64
2021/05/28 03:35:29;;;;;;;8.55;2.42;;;;;;;;;;5117546;28;20462;-64
2021/05/28 03:37:55;;;;;;;4.57;2.22;;;;;;;;;;5117383;28;20057;-64
2021/05/28 03:40:20;;;;;;;7.53;2.63;;;;;;;;;;5117517;28;20105;-64
2021/05/28 03:42:45;;;;;;;5.32;2.35;;;;;;;;;;5117338;28;20051;-64
2021/05/28 03:45:11;;;;;;;3.75;2.15;;;;;;;;;;5117714;28;20028;-64
2021/05/28 03:47:37;;;;;;;6.10;2.72;;;;;;;;;;5117169;28;20028;-64
2021/05/28 03:50:03;;;;;;;4.20;2.42;;;;;;;;;;5117167;28;20038;-64
2021/05/28 03:52:28;;;;;;;4.82;2.30;;;;;;;;;;5117174;28;20404;-64
2021/05/28 03:54:54;;;;;;;4.35;2.00;;;;;;;;;;5117147;28;20051;-64
2021/05/28 03:57:19;;;;;;;3.33;2.40;;;;;;;;;;5117091;28;20016;-64
2021/05/28 03:59:44;;;;;;;6.40;2.65;;;;;;;;;;5116783;28;20391;-64
2021/05/28 04:02:09;;;;;;;6.07;2.53;;;;;;;;;;5116999;28;20036;-64
2021/05/28 04:04:35;;;;;;;6.28;2.40;;;;;;;;;;5116760;28;20024;-64
2021/05/28 04:07:01;;;;;;;5.35;2.85;;;;;;;;;;5116943;28;20476;-64
2021/05/28 04:09:27;;;;;;;6.65;2.42;;;;;;;;;;5116626;28;20052;-64
2021/05/28 04:11:52;;;;;;;7.28;2.70;;;;;;;;;;5116911;28;20099;-64
2021/05/28 04:14:17;;;;;;;4.53;2.33;;;;;;;;;;5116731;28;20035;-64
2021/05/28 04:16:42;;;;;;;7.82;2.65;;;;;;;;;;5116449;28;20098;-64
2021/05/28 04:19:08;;;;;;;5.43;2.70;;;;;;;;;;5116646;28;20057;-64
2021/05/28 04:21:33;;;;;;;5.30;3.10;;;;;;;;;;5116674;28;20027;-64
2021/05/28 04:24:00;;;;;;;6.40;2.53;;;;;;;;;;5116586;28;20069;-64
2021/05/28 04:26:25;;;;;;;7.05;2.55;;;;;;;;;;5116851;28;20069;-64
2021/05/28 04:28:50;;;;;;;7.25;2.60;;;;;;;;;;5113972;28;20063;-64
2021/05/28 04:31:16;;;;;;;5.93;2.50;;;;;;;;;;5096082;28;20028;-64
2021/05/28 04:33:41;;;;;;;6.25;2.60;;;;;;;;;;5095897;28;20048;-64
2021/05/28 04:36:06;;;;;;;7.05;2.90;;;;;;;;;;5096046;28;20032;-64
2021/05/28 04:38:32;;;;;;;8.55;2.97;;;;;;;;;;5095801;28;20027;-64
2021/05/28 04:40:57;;;;;;;5.63;2.13;;;;;;;;;;5096010;28;20023;-64
2021/05/28 04:43:22;;;;;;;4.45;2.72;;;;;;;;;;5094994;28;20040;-64
2021/05/28 04:45:47;;;;;;;5.07;2.40;;;;;;;;;;5095846;28;20038;-64
2021/05/28 04:48:13;;;;;;;5.32;2.72;;;;;;;;;;5095372;28;20020;-64
2021/05/28 04:50:38;;;;;;;4.22;2.60;;;;;;;;;;5096020;28;20476;-65
2021/05/28 04:53:05;;;;;;;6.05;2.50;;;;;;;;;;5108711;28;20464;-64
2021/05/28 04:55:31;;;;;;;7.25;2.38;;;;;;;;;;5115999;28;20054;-64
2021/05/28 04:57:57;;;;;;;5.68;2.65;;;;;;;;;;5115827;28;20118;-64
2021/05/28 05:00:22;;;;;;;7.50;2.72;;;;;;;;;;5115686;28;20082;-64
2021/05/28 05:02:48;;;;;;;10.60;2.85;;;;;;;;;;5115832;28;20019;-64
2021/05/28 05:05:14;;;;;;;6.15;2.58;;;;;;;;;;5115711;28;20032;-64
2021/05/28 05:07:39;;;;;;;6.20;2.55;;;;;;;;;;5115724;28;20039;-64
2021/05/28 05:10:05;;;;;;;8.60;2.60;;;;;;;;;;5115818;28;20056;-64
2021/05/28 05:12:30;;;;;;;9.68;2.63;;;;;;;;;;5115602;28;20028;-64
2021/05/28 05:14:56;;;;;;;8.00;2.90;;;;;;;;;;5115764;28;20102;-64
2021/05/28 05:17:21;;;;;;;4.57;2.50;;;;;;;;;;5115489;28;20058;-63
2021/05/28 05:19:46;;;;;;;6.30;2.88;;;;;;;;;;5115474;28;20035;-64
2021/05/28 05:22:11;;;;;;;5.68;2.78;;;;;;;;;;5115321;28;20023;-64
2021/05/28 05:24:37;;;;;;;4.75;2.45;;;;;;;;;;5115329;28;20016;-65
2021/05/28 05:27:02;;;;;;;5.38;2.67;;;;;;;;;;5115529;28;20027;-64
2021/05/28 05:29:27;;;;;;;4.00;2.67;;;;;;;;;;5114828;28;20434;-64
2021/05/28 05:31:53;;;;;;;4.97;2.80;;;;;;;;;;5115337;28;20016;-64
2021/05/28 05:34:19;;;;;;;4.90;2.75;;;;;;;;;;5115025;28;20093;-64
2021/05/28 05:36:44;;;;;;;4.60;2.80;;;;;;;;;;5115061;28;20028;-64
2021/05/28 05:39:09;;;;;;;3.80;2.45;;;;;;;;;;5115054;28;20055;-64
2021/05/28 05:41:34;;;;;;;6.70;2.63;;;;;;;;;;5115100;28;20027;-64
2021/05/28 05:44:00;;;;;;;5.10;2.42;;;;;;;;;;5114979;28;20063;-64
2021/05/28 05:46:25;;;;;;;8.43;1.75;;;;;;;;;;5115427;28;20099;-65
2021/05/28 05:48:50;;;;;;;6.30;2.40;;;;;;;;;;5114741;28;20081;-64
2021/05/28 05:51:15;;;;;;;3.75;2.08;;;;;;;;;;5114999;28;20413;-64
2021/05/28 05:53:41;;;;;;;8.60;2.22;;;;;;;;;;5114809;28;20061;-64
2021/05/28 05:56:06;;;;;;;3.58;2.10;;;;;;;;;;5113522;28;20472;-64
2021/05/28 05:58:31;;;;;;;6.13;2.05;;;;;;;;;;5114696;28;20035;-64
2021/05/28 06:00:57;;;;;;;3.90;2.28;;;;;;;;;;5114487;28;20069;-64
2021/05/28 06:03:22;;;;;;;3.60;2.13;;;;;;;;;;5114648;28;20035;-64
2021/05/28 06:05:47;;;;;;;3.50;1.90;;;;;;;;;;5114652;28;20039;-64
2021/05/28 06:08:12;;;;;;;6.35;2.10;;;;;;;;;;5114487;28;20426;-64
2021/05/28 06:10:38;;;;;;;5.63;1.85;;;;;;;;;;5114143;28;20043;-64
2021/05/28 06:13:07;;;;;;;4.90;1.77;;;;;;;;;;5114509;28;20372;-64
2021/05/28 06:15:33;;;;;;;4.10;2.20;;;;;;;;;;5114461;28;20031;-64
2021/05/28 06:17:58;;;;;;;5.20;1.90;;;;;;;;;;5114443;28;20031;-64
2021/05/28 06:20:24;;;;;;;7.53;1.80;;;;;;;;;;5114336;28;20128;-65
2021/05/28 06:22:49;;;;;;;4.03;2.08;;;;;;;;;;5114281;28;20420;-64
2021/05/28 06:25:15;;;;;;;4.25;1.65;;;;;;;;;;5114055;28;20043;-64
2021/05/28 06:27:40;;;;;;;6.95;1.80;;;;;;;;;;5114087;28;20028;-64
2021/05/28 06:30:06;;;;;;;6.72;2.30;;;;;;;;;;5101239;28;20036;-65
2021/05/28 06:32:31;;;;;;;5.88;1.70;;;;;;;;;;5093655;28;20503;-64
2021/05/28 06:34:57;;;;;;;5.35;1.98;;;;;;;;;;5093791;28;20443;-64
2021/05/28 06:37:22;;;;;;;7.10;2.05;;;;;;;;;;5093782;28;20461;-65
2021/05/28 06:39:47;;;;;;;3.30;1.90;;;;;;;;;;5093581;28;20039;-65
2021/05/28 06:42:13;;;;;;;4.35;2.20;;;;;;;;;;5093565;28;20028;-65
2021/05/28 06:44:38;;;;;;;7.85;2.30;;;;;;;;;;5093068;28;20031;-64
2021/05/28 06:47:03;;;;;;;5.30;2.20;;;;;;;;;;5093512;28;20067;-65
2021/05/28 06:49:28;;;;;;;2.78;1.88;;;;;;;;;;5093340;28;20040;-65
2021/05/28 06:51:54;;;;;;;2.85;1.90;;;;;;;;;;5093524;28;20399;-65
2021/05/28 06:54:19;;;;;;;5.53;2.20;;;;;;;;;;5093389;28;20107;-65
2021/05/28 06:56:44;;;;;;;4.63;2.40;;;;;;;;;;5093256;28;20031;-65
2021/05/28 06:59:11;;;;;;;5.38;2.45;;;;;;;;;;5093357;28;20023;-65
2021/05/28 07:01:36;;;;;;;6.80;2.70;;;;;;;;;;5093249;28;20039;-65
2021/05/28 07:04:03;;;;;;;5.85;2.75;;;;;;;;;;5093281;28;20024;-65
2021/05/28 07:06:29;;;;;;;6.22;3.15;;;;;;;;;;5092987;28;20103;-65
2021/05/28 07:08:54;;;;;;;4.82;2.63;;;;;;;;;;5093030;28;20459;-66
2021/05/28 07:11:20;;;;;;;6.50;2.90;;;;;;;;;;5093293;28;20036;-65
2021/05/28 07:13:45;;;;;;;8.93;2.80;;;;;;;;;;5092791;28;20042;-65
2021/05/28 07:16:10;;;;;;;4.95;2.83;;;;;;;;;;5093302;28;20039;-65
2021/05/28 07:18:36;;;;;;;4.55;2.33;;;;;;;;;;5093043;28;20115;-65
2021/05/28 07:21:01;;;;;;;8.43;2.80;;;;;;;;;;5086953;28;20380;-64
2021/05/28 07:23:29;;;;;;;8.63;2.80;;;;;;;;;;5092463;28;20024;-65
2021/05/28 07:25:54;;;;;;;8.35;3.08;;;;;;;;;;5092468;28;20418;-65
2021/05/28 07:28:19;;;;;;;5.75;2.80;;;;;;;;;;5091767;28;20027;-65
2021/05/28 07:30:47;;;;;;;8.30;3.03;;;;;;;;;;5110126;28;20486;-65
2021/05/28 07:33:12;;;;;;;6.43;2.63;;;;;;;;;;5112195;28;20470;-65
2021/05/28 07:35:37;;;;;;;9.23;2.85;;;;;;;;;;5112035;28;20047;-65
2021/05/28 07:38:03;;;;;;;9.18;2.65;;;;;;;;;;5112693;28;20059;-65
2021/05/28 07:40:28;;;;;;;7.63;4.00;;;;;;;;;;5112088;28;20051;-65
2021/05/28 07:42:53;;;;;;;8.15;3.10;;;;;;;;;;5112334;28;20015;-65
2021/05/28 07:45:19;;;;;;;7.25;3.58;;;;;;;;;;5112891;28;20048;-65
2021/05/28 07:47:44;;;;;;;16.10;7.22;;;;;;;;;;5112495;28;20020;-65
2021/05/28 07:50:10;;;;;;;8.30;2.80;;;;;;;;;;5111340;28;20028;-65
2021/05/28 07:52:36;;;;;;;9.95;3.67;;;;;;;;;;5112394;28;20050;-64
2021/05/28 07:55:01;;;;;;;7.60;3.08;;;;;;;;;;5112747;28;20110;-65
2021/05/28 07:57:26;;;;;;;5.60;2.78;;;;;;;;;;5112111;28;20100;-65
2021/05/28 07:59:52;;;;;;;6.25;2.75;;;;;;;;;;5111932;28;20032;-65
2021/05/28 08:02:18;;;;;;;9.88;3.13;;;;;;;;;;5112184;28;20118;-65
2021/05/28 08:04:44;;;;;;;9.52;2.95;;;;;;;;;;5111702;28;20481;-64
2021/05/28 08:07:10;;;;;;;10.27;3.10;;;;;;;;;;5112962;28;20070;-65
2021/05/28 08:09:35;;;;;;;7.05;3.20;;;;;;;;;;5091839;28;20134;-65
2021/05/28 08:12:00;;;;;;;10.93;3.78;;;;;;;;;;5091092;28;20024;-65
2021/05/28 08:14:25;;;;;;;5.43;3.47;;;;;;;;;;5091480;28;20036;-65
2021/05/28 08:16:51;;;;;;;8.70;3.72;;;;;;;;;;5093761;28;20172;-65
2021/05/28 08:19:16;;;;;;;10.77;3.95;;;;;;;;;;5114145;28;20028;-65
2021/05/28 08:21:41;;;;;;;7.60;3.50;;;;;;;;;;5114882;28;20036;-65
2021/05/28 08:24:07;;;;;;;5.57;3.17;;;;;;;;;;5112640;28;20023;-65
2021/05/28 08:26:32;;;;;;;7.90;2.92;;;;;;;;;;5095492;28;20020;-65
2021/05/28 08:28:57;;;;;;;6.85;3.05;;;;;;;;;;5098806;28;20082;-65
2021/05/28 08:31:23;;;;;;;9.90;3.60;;;;;;;;;;5116260;28;20032;-65
2021/05/28 08:33:48;;;;;;;8.52;2.63;;;;;;;;;;5115337;28;20022;-65
2021/05/28 08:36:13;;;;;;;6.50;2.72;;;;;;;;;;5115042;28;20043;-65
2021/05/28 08:38:39;;;;;;;6.28;2.25;;;;;;;;;;5116231;28;20047;-65
2021/05/28 08:41:05;;;;;;;7.13;2.58;;;;;;;;;;5115751;28;20463;-65
2021/05/28 08:43:30;;;;;;;6.78;2.40;;;;;;;;;;5116139;28;20031;-66
2021/05/28 08:45:57;;;;;;;6.85;2.40;;;;;;;;;;5115971;28;20365;-65
2021/05/28 08:48:23;;;;;;;8.45;2.40;;;;;;;;;;5115973;28;20360;-65
2021/05/28 08:50:49;;;;;;;5.35;2.22;;;;;;;;;;5092465;28;20064;-65
2021/05/28 08:53:15;;;;;;;6.18;2.20;;;;;;;;;;5115432;28;20057;-65
2021/05/28 08:55:42;;;;;;;9.95;2.03;;;;;;;;;;5103205;28;20036;-65
2021/05/28 08:58:11;;;;;;;4.72;1.88;;;;;;;;;;5093729;28;20036;-65
2021/05/28 09:00:37;;;;;;;5.72;1.80;;;;;;;;;;5094962;28;20035;-65
2021/05/28 09:03:21;;;;;;;6.05;1.63;;;;;;;;;;5094832;28;20073;-65
2021/05/28 09:05:47;;;;;;;6.43;2.15;;;;;;;;;;5084713;28;20384;-65
2021/05/28 09:08:12;;;;;;;4.95;2.00;;;;;;;;;;5088168;28;20020;-65
2021/05/28 09:10:39;;;;;;;5.35;2.30;;;;;;;;;;5091422;28;20052;-65
2021/05/28 09:13:05;;;;;;;4.80;1.90;;;;;;;;;;5090269;28;20039;-65
2021/05/28 09:15:31;;;;;;;3.92;1.60;;;;;;;;;;5090070;28;20419;-65
2021/05/28 09:17:57;;;;;;;3.55;1.55;;;;;;;;;;5093534;28;20039;-65
2021/05/28 09:20:23;;;;;;;8.05;1.85;;;;;;;;;;5091057;28;20456;-65
2021/05/28 09:23:04;;;;;;;6.55;2.13;;;;;;;;;;5091466;28;20051;-64
2021/05/28 09:25:49;;;;;;;6.63;1.92;;;;;;;;;;5092091;28;20036;-65
2021/05/28 09:28:14;;;;;;;5.07;1.48;;;;;;;;;;5091844;28;20099;-65
2021/05/28 09:30:39;;;;;;;5.75;1.70;;;;;;;;;;5108993;28;20135;-65
2021/05/28 09:33:05;;;;;;;4.95;1.90;;;;;;;;;;5091074;28;20024;-65
2021/05/28 09:35:30;;;;;;;5.85;1.83;;;;;;;;;;5111843;28;20016;-65
2021/05/28 09:37:55;;;;;;;7.40;2.42;;;;;;;;;;5098863;28;20038;-65
2021/05/28 09:40:27;;;;;;;6.07;2.58;;;;;;;;;;5088933;28;20024;-65
2021/05/28 09:42:55;;;;;;;3.70;1.63;;;;;;;;;;5101628;28;20012;-65
2021/05/28 09:45:31;;;;;;;6.72;2.50;;;;;;;;;;5090869;28;20035;-65
2021/05/28 09:47:58;;;;;;;8.50;2.50;;;;;;;;;;5107840;28;20395;-65
2021/05/28 09:50:23;;;;;;;5.05;2.10;;;;;;;;;;5107208;28;20043;-64
2021/05/28 09:52:49;;;;;;;5.78;1.98;;;;;;;;;;5094419;28;20035;-64
2021/05/28 09:55:15;;;;;;;5.00;2.38;;;;;;;;;;5103380;28;20020;-65
2021/05/28 09:57:43;;;;;;;4.20;1.70;;;;;;;;;;5087286;28;20085;-65
2021/05/28 10:00:09;;;;;;;5.82;2.10;;;;;;;;;;5088840;28;20024;-65
2021/05/28 10:02:43;;;;;;;9.40;2.50;;;;;;;;;;5069454;28;20460;-65
2021/05/28 10:05:09;;;;;;;6.15;2.20;;;;;;;;;;5086507;28;20435;-64
2021/05/28 10:07:35;;;;;;;5.68;2.03;;;;;;;;;;5104480;28;20027;-65
2021/05/28 10:10:01;;;;;;;2.78;1.83;;;;;;;;;;5092729;28;20043;-65
2021/05/28 10:12:26;;;;;;;4.35;1.80;;;;;;;;;;5097328;28;20069;-65
2021/05/28 10:14:52;;;;;;;2.85;1.33;;;;;;;;;;5086447;28;20020;-63
2021/05/28 10:17:18;;;;;;;4.75;2.28;;;;;;;;;;5096803;28;20047;-63
2021/05/28 10:19:44;;;;;;;7.50;1.95;;;;;;;;;;5090334;28;20106;-63
2021/05/28 10:22:09;;;;;;;8.70;1.83;;;;;;;;;;5090093;28;20030;-64
2021/05/28 10:24:35;;;;;;;5.35;1.83;;;;;;;;;;5094587;28;20879;-64
2021/05/28 10:27:00;;;;;;;3.83;1.98;;;;;;;;;;5100490;28;20443;-64
2021/05/28 10:29:26;;;;;;;8.57;2.00;;;;;;;;;;5099658;28;20428;-64
2021/05/28 10:32:02;;;;;;;4.40;1.85;;;;;;;;;;5096371;28;21092;-63
2021/05/28 10:34:29;;;;;;;7.35;1.90;;;;;;;;;;5094763;28;20035;-64
2021/05/28 10:36:56;;;;;;;9.68;2.42;;;;;;;;;;5087755;28;20066;-63
2021/05/28 10:39:23;;;;;;;5.57;1.98;;;;;;;;;;5087414;28;20032;-64
2021/05/28 10:41:48;;;;;;;5.53;1.67;;;;;;;;;;5095347;28;20084;-63
2021/05/28 10:44:19;;;;;;;8.27;2.00;;;;;;;;;;5094687;28;20092;-66
2021/05/28 10:47:16;;;;;;;7.78;2.05;;;;;;;;;;5106437;28;20176;-66
2021/05/28 10:49:45;;;;;;;5.78;1.80;;;;;;;;;;5088610;28;20048;-64
2021/05/28 10:52:26;;;;;;;5.63;1.85;;;;;;;;;;5106873;28;20126;-65
2021/05/28 10:54:52;;;;;;;5.18;1.70;;;;;;;;;;5106612;28;20111;-64
2021/05/28 10:57:28;;;;;;;7.20;1.80;;;;;;;;;;5105775;28;20422;-63
2021/05/28 10:59:55;;;;;;;5.05;1.50;;;;;;;;;;5090729;28;20547;-63
2021/05/28 11:02:46;;;;;;;3.22;1.33;;;;;;;;;;5095192;28;20055;-64
2021/05/28 11:05:12;;;;;;;5.70;1.50;;;;;;;;;;5101912;28;20379;-64
2021/05/28 11:07:41;;;;;;;8.93;1.77;;;;;;;;;;5089010;28;20031;-64
2021/05/28 11:10:21;;;;;;;5.40;1.98;;;;;;;;;;5099832;28;20135;-64
2021/05/28 11:12:46;;;;;;;6.28;1.80;;;;;;;;;;5098789;28;20127;-64
2021/05/28 11:15:14;;;;;;;3.70;1.63;;;;;;;;;;5090258;28;20119;-64
2021/05/28 11:17:58;;;;;;;4.22;1.50;;;;;;;;;;5103302;28;20035;-64
2021/05/28 11:20:35;;;;;;;6.10;1.90;;;;;;;;;;5096151;28;20031;-64
2021/05/28 11:23:05;;;;;;;4.18;1.38;;;;;;;;;;5091792;28;20395;-65
2021/05/28 11:25:32;;;;;;;4.53;1.98;;;;;;;;;;5102696;28;20031;-64
2021/05/28 11:28:07;;;;;;;4.88;1.60;;;;;;;;;;5108030;28;20110;-64
2021/05/28 11:30:37;;;;;;;3.80;1.38;;;;;;;;;;5108914;28;20055;-64
2021/05/28 11:33:02;;;;;;;6.80;1.75;;;;;;;;;;5109596;28;20076;-64
2021/05/28 11:35:28;;;;;;;4.50;1.60;;;;;;;;;;5109704;28;20521;-65
2021/05/28 11:37:57;;;;;;;4.65;1.65;;;;;;;;;;5109928;28;20030;-65
2021/05/28 11:40:24;;;;;;;5.38;1.48;;;;;;;;;;5110805;28;20114;-64
2021/05/28 11:42:50;;;;;;;2.53;1.10;;;;;;;;;;5110431;28;20061;-64
2021/05/28 11:45:16;;;;;;;5.00;1.08;;;;;;;;;;5099260;28;20028;-64
2021/05/28 11:47:41;;;;;;;2.05;1.13;;;;;;;;;;5098852;28;20042;-64
2021/05/28 11:50:11;;;;;;;4.25;1.20;;;;;;;;;;5100989;28;20035;-64
2021/05/28 11:52:37;;;;;;;2.83;1.30;;;;;;;;;;5098996;28;20026;-64
2021/05/28 11:55:05;;;;;;;3.58;1.17;;;;;;;;;;5109872;28;20076;-64
2021/05/28 11:57:31;;;;;;;2.47;0.95;;;;;;;;;;5113003;28;20028;-65
2021/05/28 11:59:57;;;;;;;2.88;1.38;;;;;;;;;;5113271;28;20064;-64
2021/05/28 12:02:38;;;;;;;7.28;1.60;;;;;;;;;;5112885;28;20090;-64
2021/05/28 12:05:14;;;;;;;1.98;0.90;;;;;;;;;;5113070;28;20035;-64
2021/05/28 12:07:39;;;;;;;3.00;1.33;;;;;;;;;;5111940;28;20031;-65
2021/05/28 12:10:06;;;;;;;2.47;1.17;;;;;;;;;;5105047;28;20047;-64
2021/05/28 12:12:49;;;;;;;4.25;1.40;;;;;;;;;;5095253;28;20042;-65
2021/05/28 12:15:15;;;;;;;3.10;1.10;;;;;;;;;;5101659;28;20057;-64
2021/05/28 12:17:41;;;;;;;2.13;0.95;;;;;;;;;;5102939;28;20062;-64
2021/05/28 12:20:13;;;;;;;3.53;1.30;;;;;;;;;;5107325;28;20023;-64
2021/05/28 12:22:54;;;;;;;4.45;1.20;;;;;;;;;;5113177;28;20031;-64
2021/05/28 12:25:20;;;;;;;1.05;0.80;;;;;;;;;;5112240;28;20036;-64
2021/05/28 12:27:45;;;;;;;3.20;1.10;;;;;;;;;;5096923;28;20040;-64
2021/05/28 12:30:13;;;;;;;2.95;1.20;;;;;;;;;;5100768;28;20071;-64
2021/05/28 12:32:39;;;;;;;2.95;1.38;;;;;;;;;;5102198;28;20026;-64
2021/05/28 12:35:05;;;;;;;4.68;1.20;;;;;;;;;;5093679;28;20027;-64
2021/05/28 12:37:30;;;;;;;4.28;1.40;;;;;;;;;;5091280;28;20039;-64
2021/05/28 12:40:06;;;;;;;3.22;1.50;;;;;;;;;;5092392;28;20479;-64
2021/05/28 12:42:31;;;;;;;6.05;1.33;;;;;;;;;;5094968;28;20387;-64
2021/05/28 12:45:10;;;;;;;4.25;1.20;;;;;;;;;;5110225;28;20032;-64
2021/05/28 12:47:45;;;;;;;5.38;1.27;;;;;;;;;;5105344;28;20429;-65
2021/05/28 12:50:10;;;;;;;;;;;;;;;;;;5102824;28;20109;-64
2021/05/28 12:52:35;;;;;;;5.47;1.17;;;;;;;;;;5094120;28;19912;-64
2021/05/28 12:55:01;;;;;;;4.30;1.20;;;;;;;;;;5091933;28;20134;-64
2021/05/28 12:57:26;;;;;;;2.58;1.40;;;;;;;;;;5097281;28;20027;-64
2021/05/28 12:59:52;;;;;;;3.00;1.33;;;;;;;;;;5102562;28;20061;-64
2021/05/28 13:02:18;;;;;;;2.97;1.33;;;;;;;;;;5101900;28;20036;-64
2021/05/28 13:04:44;;;;;;;3.53;1.27;;;;;;;;;;5100360;28;20486;-64
2021/05/28 13:07:10;;;;;;;4.85;1.60;;;;;;;;;;5105930;28;20035;-64
2021/05/28 13:09:35;;;;;;;2.80;1.20;;;;;;;;;;5100513;28;20047;-64
2021/05/28 13:12:01;;;;;;;4.00;1.15;;;;;;;;;;5086940;28;20020;-64
2021/05/28 13:14:30;;;;;;;1.98;1.13;;;;;;;;;;5094268;28;20064;-64
2021/05/28 13:16:55;;;;;;;3.45;1.08;;;;;;;;;;5092996;28;20031;-64
2021/05/28 13:19:21;;;;;;;2.90;1.10;;;;;;;;;;5101901;28;20038;-64
2021/05/28 13:22:04;;;;;;;1.92;1.17;;;;;;;;;;5094899;28;20051;-63
2021/05/28 13:24:43;;;;;;;3.10;0.90;;;;;;;;;;5100185;28;20032;-64
2021/05/28 13:27:26;;;;;;;2.03;0.80;;;;;;;;;;5108623;28;20367;-64
2021/05/28 13:29:55;;;;;;;2.25;0.90;;;;;;;;;;5099680;28;20032;-64
2021/05/28 13:32:26;;;;;;;2.20;1.40;;;;;;;;;;5091753;28;20032;-64
2021/05/28 13:34:51;;;;;;;3.42;1.23;;;;;;;;;;5106501;28;20031;-64
2021/05/28 13:37:17;;;;;;;3.15;1.20;;;;;;;;;;5101486;28;20075;-64
2021/05/28 13:39:42;;;;;;;2.92;1.30;;;;;;;;;;5097658;28;20026;-64
2021/05/28 13:42:07;;;;;;;3.05;1.55;;;;;;;;;;5094673;28;20063;-64
2021/05/28 13:44:34;;;;;;;7.30;1.80;;;;;;;;;;5096394;28;20020;-64
2021/05/28 13:47:00;;;;;;;5.47;1.90;;;;;;;;;;5095858;28;20042;-64
2021/05/28 13:49:25;;;;;;;6.63;1.80;;;;;;;;;;5097867;28;20080;-64
2021/05/28 13:51:51;;;;;;;3.70;1.85;;;;;;;;;;5091859;28;20031;-64
2021/05/28 13:54:16;;;;;;;2.90;1.63;;;;;;;;;;5103691;28;20407;-64
2021/05/28 13:56:41;;;;;;;3.95;1.92;;;;;;;;;;5103809;28;20032;-64
2021/05/28 13:59:06;;;;;;;6.30;2.13;;;;;;;;;;5094039;28;20384;-64
2021/05/28 14:01:32;;;;;;;4.78;2.17;;;;;;;;;;5105874;28;20028;-64
2021/05/28 14:03:57;;;;;;;3.83;1.80;;;;;;;;;;5099511;28;20770;-64
2021/05/28 14:06:22;;;;;;;5.45;2.20;;;;;;;;;;5097290;28;20444;-64
2021/05/28 14:08:47;;;;;;;4.32;2.10;;;;;;;;;;5084911;28;20129;-64
2021/05/28 14:11:15;;;;;;;4.93;1.85;;;;;;;;;;5089528;28;20447;-64
2021/05/28 14:13:42;;;;;;;4.78;2.45;;;;;;;;;;5099258;28;20059;-64
2021/05/28 14:16:10;;;;;;;4.78;1.90;;;;;;;;;;5106997;28;20028;-64
2021/05/28 14:18:36;;;;;;;5.43;2.83;;;;;;;;;;5092504;28;20051;-64
2021/05/28 14:21:01;;;;;;;3.08;1.73;;;;;;;;;;5096838;28;20481;-64
2021/05/28 14:23:26;;;;;;;4.75;2.20;;;;;;;;;;5086087;28;20039;-64
2021/05/28 14:25:52;;;;;;;5.07;2.85;;;;;;;;;;5085173;28;20357;-64
2021/05/28 14:28:17;;;;;;;5.35;2.17;;;;;;;;;;5102846;28;20024;-64
2021/05/28 14:30:42;;;;;;;5.30;2.33;;;;;;;;;;5100671;28;20044;-64
2021/05/28 14:33:08;;;;;;;4.38;2.42;;;;;;;;;;5094205;28;20864;-64
2021/05/28 14:35:33;;;;;;;5.25;2.10;;;;;;;;;;5094799;28;20038;-64
2021/05/28 14:37:58;;;;;;;10.57;2.20;;;;;;;;;;5089778;28;20035;-64
2021/05/28 14:40:24;;;;;;;6.22;2.50;;;;;;;;;;5102300;28;20035;-64